Time;durP1;ratioP1;P1;durP2;ratioP2;P2;SDS_P1;SDS_P2;PMS_P1;PMS_P2;Temp;Humidity;BMP_temperature;BMP_pressure;BME280_temperature;BME280_humidity;BME280_pressure;Samples;Min_cycle;Max_cycle;Signal;HPM_P1;HPM_P2
2022/05/31 00:00:10;;;;;;;3.05;2.65;;;14.50;40.70;;;;;;5135025;27;20171;-38
2022/05/31 00:02:37;;;;;;;5.13;2.85;;;14.40;40.50;;;;;;5135058;27;20166;-38
2022/05/31 00:05:03;;;;;;;3.28;2.95;;;14.40;40.80;;;;;;5134883;27;20599;-37
2022/05/31 00:07:28;;;;;;;3.63;2.53;;;14.40;40.90;;;;;;5134681;27;20190;-37
2022/05/31 00:09:54;;;;;;;3.50;2.17;;;14.40;40.90;;;;;;5135008;27;20243;-38
2022/05/31 00:12:20;;;;;;;3.27;2.23;;;14.30;41.00;;;;;;5134674;27;20177;-38
2022/05/31 00:14:45;;;;;;;3.27;2.80;;;14.30;41.20;;;;;;5134548;27;20167;-38
2022/05/31 00:17:11;;;;;;;5.13;2.67;;;14.30;41.20;;;;;;5134509;27;20814;-38
2022/05/31 00:19:38;;;;;;;3.40;2.47;;;14.30;41.00;;;;;;5134573;27;20192;-39
2022/05/31 00:22:22;;;;;;;2.85;2.55;;;14.30;41.20;;;;;;5134656;27;20597;-38
2022/05/31 00:24:48;;;;;;;3.33;2.45;;;14.30;41.20;;;;;;5134351;27;20187;-38
2022/05/31 00:27:18;;;;;;;4.25;2.97;;;14.20;41.10;;;;;;5134157;27;20293;-38
2022/05/31 00:29:45;;;;;;;3.78;2.85;;;14.20;41.10;;;;;;5134670;27;20194;-38
2022/05/31 00:32:13;;;;;;;3.90;2.80;;;14.20;41.10;;;;;;5134322;27;20571;-38
2022/05/31 00:34:43;;;;;;;2.70;2.15;;;14.10;41.30;;;;;;5134318;27;20170;-38
2022/05/31 00:37:09;;;;;;;2.33;1.55;;;14.10;41.30;;;;;;5133997;27;20194;-38
2022/05/31 00:39:35;;;;;;;2.85;2.10;;;14.10;41.30;;;;;;5134246;27;20178;-37
2022/05/31 00:42:13;;;;;;;3.33;2.30;;;14.10;41.40;;;;;;5134141;27;20171;-38
2022/05/31 00:44:39;;;;;;;3.10;2.20;;;14.00;41.30;;;;;;5134094;27;20403;-38
2022/05/31 00:47:16;;;;;;;3.00;2.70;;;14.00;41.30;;;;;;5133825;27;20231;-38
2022/05/31 00:49:56;;;;;;;3.55;2.40;;;14.00;41.40;;;;;;5133827;27;20163;-37
2022/05/31 00:52:27;;;;;;;2.67;2.03;;;14.90;42.40;;;;;;5133936;27;20155;-38
2022/05/31 00:55:33;;;;;;;3.42;2.10;;;14.10;41.80;;;;;;5134055;27;20163;-38
2022/05/31 00:58:06;;;;;;;5.05;3.47;;;14.10;42.00;;;;;;5133681;27;20200;-37
2022/05/31 01:00:31;;;;;;;4.00;2.50;;;14.10;41.90;;;;;;5134072;27;20186;-37
2022/05/31 01:02:58;;;;;;;3.53;2.73;;;14.10;41.90;;;;;;5133758;27;20173;-37
2022/05/31 01:05:26;;;;;;;7.13;3.00;;;14.10;42.10;;;;;;5133596;27;20175;-37
2022/05/31 01:07:52;;;;;;;3.90;2.75;;;14.10;41.90;;;;;;5133389;27;20216;-38
2022/05/31 01:10:18;;;;;;;4.53;3.37;;;14.10;42.00;;;;;;5133568;27;20166;-37
2022/05/31 01:12:46;;;;;;;3.55;2.70;;;14.10;42.10;;;;;;5133779;27;20403;-37
2022/05/31 01:15:14;;;;;;;2.70;2.15;;;14.10;41.90;;;;;;5133444;27;20253;-37
2022/05/31 01:17:42;;;;;;;2.30;2.10;;;14.00;41.70;;;;;;5133260;27;20194;-37
2022/05/31 01:20:17;;;;;;;2.90;2.65;;;14.00;41.90;;;;;;5133508;27;20257;-37
2022/05/31 01:22:57;;;;;;;6.07;2.50;;;13.90;41.80;;;;;;5133671;27;20165;-37
2022/05/31 01:25:25;;;;;;;2.75;2.03;;;13.90;41.80;;;;;;5133189;27;20205;-37
2022/05/31 01:28:22;;;;;;;3.90;3.40;;;13.90;41.90;;;;;;5133133;27;20201;-38
2022/05/31 01:31:02;;;;;;;3.85;2.63;;;13.90;41.90;;;;;;5133340;27;20167;-37
2022/05/31 01:33:32;;;;;;;2.75;2.10;;;13.80;41.80;;;;;;5133203;27;20626;-37
2022/05/31 01:36:06;;;;;;;3.47;3.03;;;13.80;42.00;;;;;;5133111;27;20194;-37
2022/05/31 01:38:39;;;;;;;4.93;3.42;;;13.80;42.00;;;;;;5133238;27;20165;-37
2022/05/31 01:41:20;;;;;;;3.67;3.05;;;13.80;42.10;;;;;;5133240;27;20905;-37
2022/05/31 01:43:49;;;;;;;3.45;2.65;;;13.80;42.10;;;;;;5133085;27;20623;-37
2022/05/31 01:46:20;;;;;;;2.92;2.63;;;13.80;42.00;;;;;;5132865;27;20737;-37
2022/05/31 01:48:46;;;;;;;3.03;2.63;;;13.80;42.00;;;;;;5133217;28;20219;-38
2022/05/31 01:51:12;;;;;;;5.13;3.30;;;13.80;42.00;;;;;;5132517;27;20170;-37
2022/05/31 01:53:40;;;;;;;3.67;2.15;;;13.70;42.00;;;;;;5133084;28;20399;-37
2022/05/31 01:56:07;;;;;;;3.00;2.30;;;13.70;41.90;;;;;;5132826;28;20198;-37
2022/05/31 01:58:37;;;;;;;2.83;2.50;;;13.70;42.20;;;;;;5132950;28;20170;-37
2022/05/31 02:01:03;;;;;;;4.47;2.25;;;13.70;42.10;;;;;;5132961;28;20197;-37
2022/05/31 02:03:31;;;;;;;3.35;3.05;;;13.70;42.40;;;;;;5132883;28;20245;-37
2022/05/31 02:05:57;;;;;;;3.40;2.65;;;13.70;42.10;;;;;;5132925;28;20233;-37
2022/05/31 02:08:25;;;;;;;2.00;1.73;;;13.70;42.40;;;;;;5132790;28;20205;-37
2022/05/31 02:10:51;;;;;;;3.40;3.08;;;13.60;42.30;;;;;;5132795;27;20642;-37
2022/05/31 02:13:18;;;;;;;5.30;3.60;;;13.60;42.20;;;;;;5132912;28;20219;-37
2022/05/31 02:15:45;;;;;;;4.25;2.88;;;13.60;42.30;;;;;;5133068;28;20395;-37
2022/05/31 02:18:12;;;;;;;3.42;2.60;;;13.60;42.10;;;;;;5133093;28;20174;-37
2022/05/31 02:20:39;;;;;;;3.22;2.85;;;13.60;42.30;;;;;;5133156;28;20196;-37
2022/05/31 02:23:05;;;;;;;3.97;3.00;;;13.60;42.30;;;;;;5133103;27;20178;-37
2022/05/31 02:25:31;;;;;;;3.50;3.05;;;13.50;42.30;;;;;;5132494;28;20179;-37
2022/05/31 02:27:56;;;;;;;3.70;2.83;;;13.50;42.20;;;;;;5132780;28;20229;-37
2022/05/31 02:30:22;;;;;;;4.13;3.30;;;13.50;42.30;;;;;;5132781;28;20241;-37
2022/05/31 02:32:48;;;;;;;3.67;2.70;;;13.40;42.30;;;;;;5132928;28;20231;-37
2022/05/31 02:35:14;;;;;;;4.50;3.63;;;13.40;42.60;;;;;;5132610;28;20178;-37
2022/05/31 02:37:40;;;;;;;4.65;3.38;;;13.40;42.90;;;;;;5132466;28;20435;-37
2022/05/31 02:40:07;;;;;;;4.10;3.70;;;13.40;42.80;;;;;;5132526;28;20174;-37
2022/05/31 02:42:36;;;;;;;3.72;2.97;;;13.40;42.80;;;;;;5132527;28;20415;-37
2022/05/31 02:45:05;;;;;;;4.70;3.22;;;13.40;42.90;;;;;;5132712;28;20227;-37
2022/05/31 02:47:30;;;;;;;3.70;3.30;;;13.40;42.90;;;;;;5132478;28;20210;-37
2022/05/31 02:49:56;;;;;;;3.53;2.50;;;13.40;42.90;;;;;;5132480;28;20216;-37
2022/05/31 02:52:22;;;;;;;3.97;3.23;;;13.40;43.10;;;;;;5133264;28;20492;-37
2022/05/31 02:54:48;;;;;;;7.33;3.30;;;13.40;43.10;;;;;;5132401;28;20502;-37
2022/05/31 02:57:13;;;;;;;4.60;3.40;;;13.40;43.00;;;;;;5132445;28;20191;-37
2022/05/31 02:59:40;;;;;;;4.00;3.33;;;13.40;43.10;;;;;;5132462;28;20630;-37
2022/05/31 03:02:06;;;;;;;5.55;3.40;;;13.40;43.00;;;;;;5133237;27;20681;-37
2022/05/31 03:04:32;;;;;;;3.40;2.45;;;13.40;43.20;;;;;;5135970;27;20179;-37
2022/05/31 03:07:01;;;;;;;3.42;2.58;;;13.40;43.10;;;;;;5136093;27;20198;-37
2022/05/31 03:09:29;;;;;;;4.65;3.33;;;13.40;43.20;;;;;;5136018;27;20169;-37
2022/05/31 03:12:03;;;;;;;4.68;3.40;;;13.40;43.40;;;;;;5135973;27;20170;-37
2022/05/31 03:14:40;;;;;;;5.72;3.15;;;13.40;43.60;;;;;;5136153;27;20231;-37
2022/05/31 03:17:08;;;;;;;3.65;2.63;;;13.50;43.50;;;;;;5135689;27;20323;-37
2022/05/31 03:19:40;;;;;;;4.10;3.25;;;13.50;43.40;;;;;;5136016;27;20178;-37
2022/05/31 03:22:12;;;;;;;4.43;2.65;;;13.50;43.40;;;;;;5135764;27;20253;-37
2022/05/31 03:24:53;;;;;;;7.45;3.92;;;13.50;43.40;;;;;;5135366;27;20704;-37
2022/05/31 03:27:19;;;;;;;3.80;3.08;;;13.50;43.60;;;;;;5135677;27;20210;-37
2022/05/31 03:29:47;;;;;;;4.70;3.27;;;13.50;43.50;;;;;;5135781;27;20170;-37
2022/05/31 03:32:14;;;;;;;4.88;3.65;;;13.50;43.50;;;;;;5135664;27;20178;-37
2022/05/31 03:34:40;;;;;;;3.85;3.45;;;13.50;43.40;;;;;;5135683;27;20193;-37
2022/05/31 03:37:06;;;;;;;4.57;3.50;;;13.50;43.70;;;;;;5135318;27;20605;-37
2022/05/31 03:39:32;;;;;;;5.60;3.23;;;13.50;43.70;;;;;;5135380;27;20396;-37
2022/05/31 03:41:57;;;;;;;3.50;3.10;;;13.50;44.00;;;;;;5135406;27;20173;-37
2022/05/31 03:44:23;;;;;;;4.70;3.47;;;13.40;43.80;;;;;;5135242;27;20197;-37
2022/05/31 03:46:49;;;;;;;4.40;3.23;;;13.50;43.90;;;;;;5135336;27;20234;-37
2022/05/31 03:49:15;;;;;;;3.20;2.83;;;13.50;43.90;;;;;;5135167;27;20198;-37
2022/05/31 03:51:41;;;;;;;4.43;3.40;;;13.50;43.80;;;;;;5135170;27;20185;-37
2022/05/31 03:54:06;;;;;;;4.10;3.43;;;13.50;43.80;;;;;;5134955;27;20253;-37
2022/05/31 03:56:35;;;;;;;4.40;4.00;;;13.50;43.70;;;;;;5134911;27;20198;-37
2022/05/31 03:59:00;;;;;;;3.72;3.13;;;13.50;43.70;;;;;;5134799;27;20223;-37
2022/05/31 04:01:26;;;;;;;4.40;3.63;;;13.60;43.80;;;;;;5135022;27;20281;-37
2022/05/31 04:03:52;;;;;;;4.80;3.70;;;13.60;43.70;;;;;;5135196;27;20179;-37
2022/05/31 04:06:18;;;;;;;5.28;3.55;;;13.60;43.70;;;;;;5134878;27;20198;-37
2022/05/31 04:08:44;;;;;;;4.67;3.40;;;13.60;44.00;;;;;;5134846;27;20179;-37
2022/05/31 04:11:10;;;;;;;4.20;3.70;;;13.50;44.20;;;;;;5135021;27;20227;-37
2022/05/31 04:13:35;;;;;;;4.27;2.90;;;13.50;44.40;;;;;;5134218;27;20764;-37
2022/05/31 04:16:07;;;;;;;4.73;3.30;;;13.50;44.30;;;;;;5134497;27;20183;-37
2022/05/31 04:18:32;;;;;;;4.00;2.78;;;13.50;44.30;;;;;;5134760;27;20197;-37
2022/05/31 04:21:02;;;;;;;3.90;3.20;;;13.60;44.00;;;;;;5134693;27;20213;-37
2022/05/31 04:26:13;;;;;;;5.57;5.07;;;13.60;43.90;;;;;;5134425;27;20204;-37
2022/05/31 04:28:39;;;;;;;2.83;2.55;;;13.60;43.80;;;;;;5134591;27;20178;-37
2022/05/31 04:31:05;;;;;;;4.20;3.30;;;13.60;43.60;;;;;;5134527;27;20663;-37
2022/05/31 04:33:30;;;;;;;3.13;2.57;;;13.70;43.80;;;;;;5134286;27;20256;-37
2022/05/31 04:36:11;;;;;;;4.23;3.37;;;13.70;43.80;;;;;;5134048;27;20186;-37
2022/05/31 04:38:37;;;;;;;3.75;2.63;;;13.70;43.80;;;;;;5134085;27;20178;-37
2022/05/31 04:41:03;;;;;;;3.58;3.25;;;13.70;43.90;;;;;;5134170;27;20198;-37
2022/05/31 04:43:30;;;;;;;4.03;3.45;;;13.80;43.90;;;;;;5134290;27;20167;-37
2022/05/31 04:45:56;;;;;;;3.65;3.05;;;13.80;43.70;;;;;;5133806;27;20190;-37
2022/05/31 04:48:21;;;;;;;4.67;3.40;;;13.90;43.90;;;;;;5134051;27;20198;-37
2022/05/31 04:50:47;;;;;;;3.17;2.80;;;13.90;43.90;;;;;;5134051;27;20991;-37
2022/05/31 04:53:13;;;;;;;5.13;3.40;;;14.00;43.80;;;;;;5134113;27;20181;-37
2022/05/31 04:55:38;;;;;;;3.90;3.13;;;14.10;43.70;;;;;;5134611;27;20404;-37
2022/05/31 04:58:05;;;;;;;6.13;3.73;;;14.10;43.70;;;;;;5133785;27;20581;-37
2022/05/31 05:00:30;;;;;;;3.95;3.15;;;14.20;43.40;;;;;;5133889;27;20244;-37
2022/05/31 05:02:57;;;;;;;4.50;3.50;;;14.30;43.50;;;;;;5134134;27;20178;-37
2022/05/31 05:05:22;;;;;;;4.90;3.20;;;14.30;43.60;;;;;;5133685;27;20171;-37
2022/05/31 05:07:48;;;;;;;4.20;3.53;;;14.30;43.40;;;;;;5143755;27;20230;-37
2022/05/31 05:10:14;;;;;;;4.55;3.85;;;14.40;43.60;;;;;;5147644;27;20172;-37
2022/05/31 05:12:40;;;;;;;4.20;3.13;;;14.40;43.60;;;;;;5137503;27;20202;-37
2022/05/31 05:15:06;;;;;;;4.90;3.10;;;14.50;43.60;;;;;;5132194;27;20706;-37
2022/05/31 05:17:32;;;;;;;5.50;3.53;;;14.60;43.60;;;;;;5133617;27;20339;-37
2022/05/31 05:19:58;;;;;;;6.25;2.97;;;14.70;43.30;;;;;;5134045;27;20174;-37
2022/05/31 05:22:25;;;;;;;4.47;3.10;;;14.80;43.30;;;;;;5133381;27;20653;-37
2022/05/31 05:24:51;;;;;;;4.30;3.00;;;14.90;43.20;;;;;;5131192;27;20702;-38
2022/05/31 05:27:16;;;;;;;4.53;3.63;;;14.90;43.00;;;;;;5133139;27;20194;-37
2022/05/31 05:32:27;;;;;;;4.00;2.83;;;15.00;42.60;;;;;;5133407;27;20206;-37
2022/05/31 05:34:54;;;;;;;4.50;2.83;;;15.00;42.70;;;;;;5133062;27;20198;-37
2022/05/31 05:37:21;;;;;;;5.25;3.80;;;15.00;42.80;;;;;;5132983;27;21000;-37
2022/05/31 05:39:46;;;;;;;3.10;2.65;;;15.10;42.60;;;;;;5133106;27;20174;-37
2022/05/31 05:42:13;;;;;;;3.27;2.37;;;15.10;42.70;;;;;;5133328;27;20579;-37
2022/05/31 05:44:39;;;;;;;3.05;2.38;;;15.00;42.50;;;;;;5133056;27;20166;-37
2022/05/31 05:47:09;;;;;;;3.17;2.80;;;15.00;42.30;;;;;;5133074;27;20202;-37
2022/05/31 05:49:36;;;;;;;2.90;2.38;;;15.00;42.50;;;;;;5133048;27;20150;-37
2022/05/31 05:52:06;;;;;;;5.50;3.08;;;15.00;42.50;;;;;;5132937;28;20694;-37
2022/05/31 05:54:31;;;;;;;3.72;3.10;;;15.00;42.50;;;;;;5132811;28;20249;-37
2022/05/31 05:56:57;;;;;;;4.10;2.80;;;15.00;42.90;;;;;;5133227;28;20311;-37
2022/05/31 05:59:23;;;;;;;3.47;2.50;;;15.00;42.60;;;;;;5132909;28;20175;-37
2022/05/31 06:01:55;;;;;;;5.00;2.70;;;15.00;42.90;;;;;;5133107;28;20533;-37
2022/05/31 06:04:34;;;;;;;3.78;2.55;;;15.10;43.20;;;;;;5132763;28;20171;-37
2022/05/31 06:07:16;;;;;;;3.08;2.75;;;15.10;42.90;;;;;;5132839;28;20198;-37
2022/05/31 06:09:46;;;;;;;4.28;2.33;;;15.20;43.40;;;;;;5133026;28;20249;-37
2022/05/31 06:12:17;;;;;;;4.20;3.13;;;15.20;42.60;;;;;;5132768;28;20170;-37
2022/05/31 06:14:49;;;;;;;6.45;3.38;;;15.30;42.70;;;;;;5132875;28;20161;-37
2022/05/31 06:17:19;;;;;;;3.00;2.20;;;15.50;42.70;;;;;;5132935;28;20644;-37
2022/05/31 06:19:47;;;;;;;3.63;2.47;;;15.60;42.50;;;;;;5132750;28;20174;-37
2022/05/31 06:22:13;;;;;;;3.58;2.97;;;15.80;42.50;;;;;;5132875;28;20166;-38
2022/05/31 06:24:40;;;;;;;3.50;2.70;;;15.90;42.20;;;;;;5132421;28;20298;-38
2022/05/31 06:27:06;;;;;;;4.22;3.83;;;16.00;42.20;;;;;;5132128;28;20530;-38
2022/05/31 06:29:32;;;;;;;3.55;3.08;;;16.10;41.90;;;;;;5132838;28;20171;-38
2022/05/31 06:31:58;;;;;;;2.23;2.03;;;16.20;41.90;;;;;;5132697;28;20170;-38
2022/05/31 06:34:24;;;;;;;4.40;3.10;;;16.30;41.90;;;;;;5132595;28;20170;-38
2022/05/31 06:37:01;;;;;;;4.47;3.17;;;16.40;41.80;;;;;;5134531;27;20689;-38
2022/05/31 06:39:27;;;;;;;6.20;2.80;;;16.60;41.70;;;;;;5136452;27;20231;-38
2022/05/31 06:41:55;;;;;;;4.67;3.57;;;16.60;41.10;;;;;;5136417;27;20167;-38
2022/05/31 06:44:20;;;;;;;3.20;2.67;;;16.50;40.70;;;;;;5136256;27;20725;-38
2022/05/31 06:46:46;;;;;;;4.67;3.20;;;16.50;40.90;;;;;;5136242;27;20286;-38
2022/05/31 06:49:12;;;;;;;3.80;2.60;;;16.50;41.20;;;;;;5136376;27;20265;-38
2022/05/31 06:57:06;;;;;;;3.58;2.67;;;16.60;41.00;;;;;;5136330;27;20640;-38
2022/05/31 06:59:31;;;;;;;4.50;3.27;;;16.70;41.50;;;;;;5136339;27;20195;-38
2022/05/31 07:02:04;;;;;;;4.07;2.77;;;16.90;41.60;;;;;;5136313;27;20685;-38
2022/05/31 07:04:31;;;;;;;4.35;2.70;;;17.00;41.10;;;;;;5135962;27;20154;-38
2022/05/31 07:06:57;;;;;;;4.45;3.90;;;17.10;41.10;;;;;;5135782;27;20233;-38
2022/05/31 07:09:22;;;;;;;8.63;2.80;;;17.10;40.40;;;;;;5136145;27;20261;-38
2022/05/31 07:11:48;;;;;;;2.70;2.50;;;17.10;40.80;;;;;;5135931;27;20713;-38
2022/05/31 07:14:14;;;;;;;3.70;3.40;;;17.30;41.00;;;;;;5136111;27;20170;-38
2022/05/31 07:16:41;;;;;;;4.20;3.10;;;17.40;40.60;;;;;;5135072;27;20194;-38
2022/05/31 07:19:06;;;;;;;3.58;2.17;;;17.50;40.60;;;;;;5135757;27;20170;-38
2022/05/31 07:21:32;;;;;;;3.87;3.00;;;17.60;40.30;;;;;;5135723;27;20175;-38
2022/05/31 07:23:58;;;;;;;3.60;3.00;;;17.70;40.00;;;;;;5135489;27;20744;-38
2022/05/31 07:26:24;;;;;;;3.20;2.90;;;17.90;40.30;;;;;;5136138;27;20194;-40
2022/05/31 07:28:50;;;;;;;3.55;2.90;;;18.10;40.40;;;;;;5135646;27;20203;-40
2022/05/31 07:31:15;;;;;;;5.50;3.13;;;18.20;40.40;;;;;;5135636;27;20266;-40
2022/05/31 07:33:41;;;;;;;5.90;2.90;;;18.50;40.40;;;;;;5135540;27;20163;-40
2022/05/31 07:36:07;;;;;;;3.17;2.87;;;18.70;40.20;;;;;;5135326;27;20223;-41
2022/05/31 07:38:33;;;;;;;3.25;2.65;;;18.80;39.50;;;;;;5135589;27;20530;-40
2022/05/31 07:40:59;;;;;;;2.77;2.57;;;19.00;39.50;;;;;;5135472;27;20182;-40
2022/05/31 07:43:25;;;;;;;3.30;2.77;;;19.10;39.20;;;;;;5135460;27;20404;-40
2022/05/31 07:46:05;;;;;;;3.45;2.70;;;19.20;39.10;;;;;;5135427;27;20206;-40
2022/05/31 07:48:32;;;;;;;3.03;2.40;;;19.30;38.20;;;;;;5134597;27;20182;-40
2022/05/31 07:50:58;;;;;;;3.33;2.50;;;19.30;38.10;;;;;;5135232;27;20579;-39
2022/05/31 07:53:24;;;;;;;3.53;2.70;;;19.30;37.90;;;;;;5135246;27;20222;-40
2022/05/31 07:55:57;;;;;;;3.10;2.70;;;19.40;38.10;;;;;;5135133;27;20186;-41
2022/05/31 07:58:32;;;;;;;3.25;2.63;;;19.60;38.60;;;;;;5135035;27;20170;-40
2022/05/31 08:01:04;;;;;;;3.10;2.55;;;19.70;38.30;;;;;;5135042;27;20170;-40
2022/05/31 08:03:32;;;;;;;3.22;2.17;;;19.90;38.70;;;;;;5134967;27;20167;-40
2022/05/31 08:06:02;;;;;;;2.63;2.25;;;20.00;36.70;;;;;;5134800;27;20202;-40
2022/05/31 08:08:31;;;;;;;2.92;2.30;;;20.10;36.60;;;;;;5134877;27;20557;-40
2022/05/31 08:10:57;;;;;;;2.45;2.13;;;20.30;36.50;;;;;;5135032;27;20174;-40
2022/05/31 08:13:22;;;;;;;2.22;1.45;;;20.30;36.40;;;;;;5135329;27;20176;-40
2022/05/31 08:15:48;;;;;;;2.37;1.60;;;20.50;36.40;;;;;;5134623;27;20167;-41
2022/05/31 08:18:14;;;;;;;2.60;1.53;;;20.60;36.60;;;;;;5135002;27;20182;-40
2022/05/31 08:20:40;;;;;;;3.90;2.20;;;20.90;36.80;;;;;;5134626;27;20182;-40
2022/05/31 08:23:06;;;;;;;2.53;1.73;;;21.00;36.80;;;;;;5134824;27;20215;-41
2022/05/31 08:25:34;;;;;;;2.20;1.75;;;21.20;36.70;;;;;;5134300;27;20564;-40
2022/05/31 08:28:01;;;;;;;2.72;2.35;;;21.40;35.50;;;;;;5134314;27;20809;-40
2022/05/31 08:30:27;;;;;;;3.40;1.90;;;21.60;35.90;;;;;;5134363;27;20174;-41
2022/05/31 08:32:53;;;;;;;3.73;1.40;;;21.70;34.90;;;;;;5134390;27;20170;-40
2022/05/31 08:35:19;;;;;;;2.97;1.83;;;21.80;34.30;;;;;;5134348;27;20505;-41
2022/05/31 08:37:44;;;;;;;3.37;1.90;;;21.80;32.70;;;;;;5134091;27;20191;-40
2022/05/31 08:40:12;;;;;;;3.70;1.60;;;21.90;33.80;;;;;;5134622;27;20400;-40
2022/05/31 08:42:57;;;;;;;3.17;1.70;;;21.90;33.60;;;;;;5134121;27;20250;-40
2022/05/31 08:45:28;;;;;;;2.30;1.53;;;22.10;33.20;;;;;;5134510;27;20453;-40
2022/05/31 08:48:03;;;;;;;2.78;1.20;;;22.10;33.10;;;;;;5134105;27;20448;-40
2022/05/31 08:53:30;;;;;;;2.00;1.57;;;22.20;33.20;;;;;;5134243;27;20372;-40
2022/05/31 08:59:08;;;;;;;3.00;2.07;;;22.50;32.30;;;;;;5134083;27;20865;-41
2022/05/31 09:01:39;;;;;;;3.57;2.57;;;22.60;32.30;;;;;;5133828;27;20404;-40
2022/05/31 09:04:11;;;;;;;3.80;1.60;;;22.60;31.30;;;;;;5133888;27;20404;-40
2022/05/31 09:06:54;;;;;;;1.83;1.30;;;22.70;32.10;;;;;;5133565;27;20518;-40
2022/05/31 09:09:26;;;;;;;6.93;2.20;;;22.80;30.40;;;;;;5133803;27;20475;-40
2022/05/31 09:12:10;;;;;;;2.33;1.57;;;22.90;30.90;;;;;;5134426;27;20396;-41
2022/05/31 09:14:56;;;;;;;3.03;1.43;;;23.00;31.80;;;;;;5133766;27;20377;-41
2022/05/31 09:17:38;;;;;;;2.83;1.40;;;23.10;31.30;;;;;;5132327;27;20522;-40
2022/05/31 09:20:28;;;;;;;2.00;1.60;;;23.10;30.20;;;;;;5133570;27;20384;-40
2022/05/31 09:22:54;;;;;;;2.80;1.50;;;23.20;31.30;;;;;;5133487;27;20484;-41
2022/05/31 09:25:20;;;;;;;2.10;1.47;;;23.10;29.50;;;;;;5133221;27;20963;-41
2022/05/31 09:27:48;;;;;;;2.23;1.37;;;23.20;30.30;;;;;;5133250;27;20190;-41
2022/05/31 09:30:29;;;;;;;2.77;1.90;;;23.30;30.90;;;;;;5133338;27;20440;-40
2022/05/31 09:33:21;;;;;;;3.23;2.10;;;23.50;31.00;;;;;;5133587;27;20404;-41
2022/05/31 09:36:09;;;;;;;2.20;1.50;;;23.70;31.70;;;;;;5133341;27;20396;-40
2022/05/31 09:39:16;;;;;;;2.27;1.33;;;23.80;31.20;;;;;;5133463;27;20752;-40
2022/05/31 09:41:46;;;;;;;3.03;1.93;;;24.00;31.00;;;;;;5069696;28;20465;-40
2022/05/31 09:44:40;;;;;;;6.43;5.80;;;24.10;31.00;;;;;;5124028;27;20432;-40
2022/05/31 09:47:20;;;;;;;2.53;1.90;;;24.20;29.10;;;;;;5132936;27;20452;-40
2022/05/31 09:49:49;;;;;;;1.93;1.33;;;24.30;30.10;;;;;;5133350;28;20422;-40
2022/05/31 09:52:30;;;;;;;2.07;1.33;;;24.40;28.80;;;;;;5133048;28;20897;-40
2022/05/31 09:58:24;;;;;;;2.40;1.30;;;24.50;29.60;;;;;;5133355;28;20383;-41
2022/05/31 10:01:11;;;;;;;4.37;1.80;;;24.70;27.90;;;;;;5133075;27;20419;-40
2022/05/31 10:03:44;;;;;;;1.97;1.50;;;24.70;29.10;;;;;;5133232;28;20387;-40
2022/05/31 10:06:30;;;;;;;2.07;1.47;;;24.80;28.50;;;;;;5133393;28;20424;-41
2022/05/31 10:08:56;;;;;;;2.33;1.53;;;24.90;28.70;;;;;;5135515;28;20412;-41
2022/05/31 10:11:34;;;;;;;2.00;1.20;;;24.90;28.10;;;;;;5135210;27;20422;-41
2022/05/31 10:14:06;;;;;;;5.57;1.60;;;24.90;27.70;;;;;;5137056;27;20407;-41
2022/05/31 10:16:34;;;;;;;7.23;2.30;;;24.70;27.40;;;;;;5137247;27;20473;-41
2022/05/31 10:19:04;;;;;;;1.90;1.57;;;24.80;27.80;;;;;;5137006;27;20404;-41
2022/05/31 10:21:38;;;;;;;2.10;1.13;;;24.90;27.20;;;;;;5137578;27;20408;-41
2022/05/31 10:24:08;;;;;;;2.93;1.10;;;24.90;25.60;;;;;;5136636;27;20506;-41
2022/05/31 10:26:38;;;;;;;2.03;1.43;;;25.00;27.30;;;;;;5136997;27;20420;-41
2022/05/31 10:29:12;;;;;;;2.40;1.63;;;25.10;27.30;;;;;;5137078;27;20388;-41
2022/05/31 10:31:45;;;;;;;2.00;1.23;;;25.00;27.00;;;;;;5137014;27;20462;-41
2022/05/31 10:34:40;;;;;;;1.90;1.40;;;25.00;26.80;;;;;;5136605;27;20381;-41
2022/05/31 10:37:22;;;;;;;4.37;1.17;;;25.00;26.20;;;;;;5136416;27;20969;-41
2022/05/31 10:40:07;;;;;;;2.00;1.00;;;25.10;26.90;;;;;;5136686;27;20407;-42
2022/05/31 10:42:38;;;;;;;2.10;1.30;;;25.30;27.70;;;;;;5136566;27;20906;-41
2022/05/31 10:45:06;;;;;;;2.90;1.73;;;25.50;27.00;;;;;;5136396;27;20494;-41
2022/05/31 10:47:32;;;;;;;1.80;1.20;;;25.70;26.10;;;;;;5136131;27;20500;-41
2022/05/31 10:49:58;;;;;;;2.20;1.97;;;25.80;26.40;;;;;;5136569;27;20407;-41
2022/05/31 10:52:53;;;;;;;2.00;1.50;;;25.80;25.10;;;;;;5136613;27;20478;-41
2022/05/31 10:55:46;;;;;;;3.73;1.83;;;25.80;23.90;;;;;;5128811;27;20472;-42
2022/05/31 10:58:11;;;;;;;2.40;1.50;;;25.70;23.80;;;;;;5136115;27;20772;-41
2022/05/31 11:01:22;;;;;;;2.13;1.30;;;25.70;23.90;;;;;;5136226;27;20433;-41
2022/05/31 11:03:50;;;;;;;1.90;1.40;;;25.80;24.30;;;;;;5072722;28;20183;-41
2022/05/31 11:06:44;;;;;;;2.90;1.70;;;25.90;25.70;;;;;;5123488;27;20508;-41
2022/05/31 11:13:07;;;;;;;1.80;1.00;;;26.40;24.60;;;;;;5136025;27;20392;-41
2022/05/31 11:15:49;;;;;;;4.93;4.00;;;26.50;23.70;;;;;;5079977;27;20442;-42
2022/05/31 11:18:18;;;;;;;1.80;1.03;;;26.60;22.10;;;;;;5136019;27;20393;-41
2022/05/31 11:21:18;;;;;;;1.80;1.40;;;26.70;23.70;;;;;;5135673;27;20413;-41
2022/05/31 11:24:17;;;;;;;2.23;1.20;;;26.70;23.80;;;;;;5134657;27;20480;-41
2022/05/31 11:27:07;;;;;;;1.80;1.00;;;26.70;23.80;;;;;;5135797;27;20435;-41
2022/05/31 11:30:21;;;;;;;1.93;1.23;;;26.60;23.50;;;;;;5135849;27;20396;-41
2022/05/31 11:33:20;;;;;;;1.70;1.27;;;26.50;24.20;;;;;;5130833;27;21000;-41
2022/05/31 11:36:08;;;;;;;2.43;1.20;;;26.30;24.80;;;;;;5136138;27;20389;-41
2022/05/31 11:38:42;;;;;;;2.27;1.57;;;26.10;23.40;;;;;;5136036;27;20473;-41
2022/05/31 11:41:18;;;;;;;2.97;1.50;;;26.00;23.70;;;;;;5135737;27;20407;-41
2022/05/31 11:43:52;;;;;;;5.30;1.53;;;26.00;22.90;;;;;;5135391;27;20419;-41
2022/05/31 11:46:43;;;;;;;1.77;1.23;;;26.00;23.10;;;;;;5135399;27;20459;-41
2022/05/31 11:49:38;;;;;;;2.80;1.60;;;26.00;24.00;;;;;;5135264;27;20432;-41
2022/05/31 11:52:31;;;;;;;2.10;1.27;;;26.10;24.00;;;;;;5135175;27;20381;-41
2022/05/31 11:55:28;;;;;;;2.10;1.30;;;26.30;23.50;;;;;;5135090;27;20389;-39
2022/05/31 11:58:15;;;;;;;2.00;1.20;;;26.30;23.90;;;;;;5134930;27;20423;-39
2022/05/31 12:01:17;;;;;;;2.37;1.37;;;26.20;21.20;;;;;;5135044;27;20388;-40
2022/05/31 12:04:01;;;;;;;2.53;1.30;;;26.10;22.10;;;;;;5135022;27;20388;-39
2022/05/31 12:06:48;;;;;;;2.00;1.40;;;25.90;22.30;;;;;;5134878;27;20420;-40
2022/05/31 12:09:31;;;;;;;3.07;1.40;;;25.80;21.90;;;;;;5134843;27;20419;-39
2022/05/31 12:12:08;;;;;;;3.30;1.70;;;25.70;21.20;;;;;;5134858;27;20428;-40
2022/05/31 12:14:40;;;;;;;2.73;1.37;;;25.60;21.80;;;;;;5134922;27;20407;-40
2022/05/31 12:17:08;;;;;;;1.90;1.00;;;25.40;22.80;;;;;;5134778;27;20769;-39
2022/05/31 12:20:11;;;;;;;2.80;1.57;;;25.40;20.90;;;;;;5134817;27;20560;-40
2022/05/31 12:22:43;;;;;;;2.20;1.43;;;25.30;22.10;;;;;;5134697;27;20388;-39
2022/05/31 12:25:14;;;;;;;2.17;1.50;;;25.20;22.40;;;;;;5134275;27;20835;-40
2022/05/31 12:27:43;;;;;;;2.63;1.43;;;25.20;22.90;;;;;;5134478;27;20483;-39
2022/05/31 12:30:19;;;;;;;2.20;1.37;;;25.20;23.50;;;;;;5134641;27;20806;-39
2022/05/31 12:32:47;;;;;;;1.90;1.30;;;25.30;21.80;;;;;;5134326;27;20392;-40
2022/05/31 12:35:31;;;;;;;2.47;1.50;;;25.30;23.20;;;;;;5134156;27;20396;-40
2022/05/31 12:38:03;;;;;;;1.80;1.13;;;25.40;23.60;;;;;;5134138;27;20745;-39
2022/05/31 12:40:31;;;;;;;2.47;1.57;;;25.40;23.80;;;;;;5134407;27;20452;-39
2022/05/31 12:42:57;;;;;;;2.33;1.30;;;25.40;24.20;;;;;;5134247;27;20400;-39
2022/05/31 12:45:37;;;;;;;2.33;1.00;;;25.40;24.30;;;;;;5134160;27;20527;-39
2022/05/31 12:48:11;;;;;;;1.70;1.00;;;25.30;24.60;;;;;;5134326;27;20219;-40
2022/05/31 12:50:55;;;;;;;1.90;1.20;;;25.30;24.50;;;;;;5134267;27;20399;-39
2022/05/31 12:53:50;;;;;;;2.07;1.40;;;25.20;24.30;;;;;;5134034;27;20407;-39
2022/05/31 12:56:31;;;;;;;5.73;1.67;;;25.20;24.60;;;;;;5133610;27;20452;-39
2022/05/31 12:58:59;;;;;;;1.70;1.07;;;25.10;24.70;;;;;;5133768;27;20404;-38
2022/05/31 13:01:24;;;;;;;1.70;1.00;;;25.10;24.80;;;;;;5133781;27;20401;-39
2022/05/31 13:03:50;;;;;;;1.80;1.10;;;25.00;25.00;;;;;;5133782;27;20761;-39
2022/05/31 13:06:40;;;;;;;2.00;1.50;;;25.00;25.00;;;;;;5133528;27;20194;-39
2022/05/31 13:09:13;;;;;;;4.07;1.30;;;25.10;25.10;;;;;;5133600;27;20202;-40
2022/05/31 13:20:32;;;;;;;3.10;2.07;;;25.10;25.30;;;;;;5133923;27;20384;-39
2022/05/31 13:23:11;;;;;;;2.10;1.10;;;25.20;25.10;;;;;;5133548;27;20381;-39
2022/05/31 13:25:57;;;;;;;2.10;1.40;;;25.40;25.60;;;;;;5133150;27;20432;-39
2022/05/31 13:28:34;;;;;;;3.20;1.60;;;25.80;25.60;;;;;;5121941;22;20573;-41
2022/05/31 13:31:09;;;;;;;3.07;1.53;;;26.20;24.90;;;;;;5080813;28;20457;-41
2022/05/31 13:33:35;;;;;;;1.97;1.07;;;26.50;25.00;;;;;;5072291;28;20420;-41
2022/05/31 13:36:17;;;;;;;2.50;1.30;;;26.80;24.70;;;;;;5071967;28;20827;-40
2022/05/31 13:38:45;;;;;;;1.80;1.30;;;27.10;23.50;;;;;;5084170;28;20647;-41
2022/05/31 13:41:14;;;;;;;4.03;1.37;;;27.30;23.80;;;;;;5092388;28;20402;-41
2022/05/31 13:43:47;;;;;;;2.40;1.63;;;27.40;23.90;;;;;;5092251;28;20898;-42